Time;durP1;ratioP1;P1;durP2;ratioP2;P2;SDS_P1;SDS_P2;PMS_P1;PMS_P2;Temp;Humidity;BMP_temperature;BMP_pressure;BME280_temperature;BME280_humidity;BME280_pressure;Samples;Min_cycle;Max_cycle;Signal;HPM_P1;HPM_P2
2021/03/09 00:01:29;;;;;;;13.63;11.03;;;5.60;79.40;;;;;;5073190;28;20174;-52
2021/03/09 00:03:54;;;;;;;13.20;10.60;;;5.60;79.40;;;;;;5074122;28;20556;-47
2021/03/09 00:06:20;;;;;;;13.57;11.53;;;5.60;79.50;;;;;;5079138;28;20425;-53
2021/03/09 00:08:45;;;;;;;13.47;11.17;;;5.60;79.30;;;;;;5092667;28;20227;-46
2021/03/09 00:11:11;;;;;;;12.70;11.03;;;5.60;79.40;;;;;;5094059;28;20181;-54
2021/03/09 00:13:36;;;;;;;15.50;11.40;;;5.60;79.40;;;;;;5084402;28;20272;-50
2021/03/09 00:16:02;;;;;;;14.40;11.93;;;5.60;79.50;;;;;;5073188;28;20199;-51
2021/03/09 00:18:28;;;;;;;13.70;11.93;;;5.50;79.50;;;;;;5088152;28;20185;-47
2021/03/09 00:20:53;;;;;;;13.93;11.67;;;5.50;79.60;;;;;;5093535;28;20174;-47
2021/03/09 00:23:19;;;;;;;15.03;12.27;;;5.50;79.40;;;;;;5080289;28;20198;-49
2021/03/09 00:25:44;;;;;;;13.27;11.70;;;5.50;79.40;;;;;;5072912;28;20554;-49
2021/03/09 00:28:10;;;;;;;15.13;12.97;;;5.50;79.80;;;;;;5084158;28;20534;-58
2021/03/09 00:30:35;;;;;;;15.27;12.50;;;5.40;79.90;;;;;;5093054;28;20537;-59
2021/03/09 00:33:01;;;;;;;14.53;12.50;;;5.40;80.00;;;;;;5094208;28;20178;-52
2021/03/09 00:35:26;;;;;;;13.97;12.10;;;5.40;80.30;;;;;;5092286;28;20288;-53
2021/03/09 00:37:52;;;;;;;14.57;12.50;;;5.40;80.30;;;;;;5081693;28;20191;-51
2021/03/09 00:40:17;;;;;;;15.30;12.53;;;5.40;80.20;;;;;;5073289;28;20661;-53
2021/03/09 00:42:43;;;;;;;15.33;12.67;;;5.30;80.40;;;;;;5087699;28;20202;-55
2021/03/09 00:45:09;;;;;;;14.23;12.03;;;5.20;80.60;;;;;;5094176;28;20189;-53
2021/03/09 00:47:34;;;;;;;15.80;14.20;;;5.20;80.90;;;;;;5084492;28;20436;-54
2021/03/09 00:50:00;;;;;;;15.00;12.80;;;5.20;81.00;;;;;;5078876;28;20228;-47
2021/03/09 00:52:26;;;;;;;16.17;13.57;;;5.20;81.10;;;;;;5075944;28;20244;-47
2021/03/09 00:54:51;;;;;;;15.60;13.57;;;5.20;81.00;;;;;;5077378;28;20186;-47
2021/03/09 00:57:17;;;;;;;15.50;13.43;;;5.30;81.20;;;;;;5075371;28;20166;-49
2021/03/09 00:59:42;;;;;;;15.97;13.67;;;5.30;81.30;;;;;;5076754;28;20216;-53
2021/03/09 01:02:08;;;;;;;16.93;13.47;;;5.30;81.10;;;;;;5076929;28;20291;-49
2021/03/09 01:04:33;;;;;;;16.33;12.87;;;5.20;81.00;;;;;;5075671;28;20217;-51
2021/03/09 01:06:59;;;;;;;17.53;13.37;;;5.20;81.30;;;;;;5076341;28;20170;-58
2021/03/09 01:09:25;;;;;;;15.60;13.57;;;5.10;81.40;;;;;;5076999;28;20182;-52
2021/03/09 01:11:50;;;;;;;15.23;12.73;;;5.10;81.70;;;;;;5077517;28;20565;-48
2021/03/09 01:14:16;;;;;;;16.30;14.00;;;5.00;81.70;;;;;;5077037;28;20178;-47
2021/03/09 01:16:41;;;;;;;16.73;14.00;;;5.10;82.20;;;;;;5076563;28;20240;-47
2021/03/09 01:19:07;;;;;;;16.37;13.50;;;5.00;82.50;;;;;;5076762;28;20253;-54
2021/03/09 01:21:32;;;;;;;15.70;13.20;;;4.90;82.30;;;;;;5076773;28;20181;-54
2021/03/09 01:23:58;;;;;;;17.23;14.00;;;4.80;82.60;;;;;;5076775;28;20167;-49
2021/03/09 01:26:23;;;;;;;17.00;14.50;;;4.80;82.80;;;;;;5077280;28;20263;-55
2021/03/09 01:28:49;;;;;;;15.77;13.70;;;4.70;82.70;;;;;;5076700;28;20250;-57
2021/03/09 01:31:15;;;;;;;15.50;13.40;;;4.70;82.70;;;;;;5077359;28;20198;-46
2021/03/09 01:33:40;;;;;;;15.87;13.57;;;4.70;82.70;;;;;;5076357;28;20189;-52
2021/03/09 01:36:06;;;;;;;17.33;13.97;;;4.70;82.70;;;;;;5076535;28;20195;-51
2021/03/09 01:38:32;;;;;;;16.63;14.20;;;4.70;83.10;;;;;;5077762;28;20175;-58
2021/03/09 01:40:57;;;;;;;16.07;13.73;;;4.70;83.20;;;;;;5076567;28;20174;-56
2021/03/09 01:43:23;;;;;;;16.23;13.97;;;4.70;82.80;;;;;;5076824;28;20221;-57
2021/03/09 01:45:48;;;;;;;17.13;14.00;;;4.60;83.40;;;;;;5076456;28;20232;-47
2021/03/09 01:48:17;;;;;;;17.53;14.37;;;4.60;83.60;;;;;;5076628;28;20243;-51
2021/03/09 01:50:43;;;;;;;17.67;13.90;;;4.50;83.70;;;;;;5076584;28;20188;-47
2021/03/09 01:53:09;;;;;;;17.23;14.70;;;4.50;83.50;;;;;;5077168;28;20236;-47
2021/03/09 01:55:36;;;;;;;17.33;14.10;;;4.50;83.50;;;;;;5076419;28;20190;-53
2021/03/09 01:58:07;;;;;;;18.60;14.57;;;4.60;83.80;;;;;;5075527;28;20642;-51
2021/03/09 02:00:33;;;;;;;16.63;13.73;;;4.50;84.00;;;;;;5076272;28;20171;-53
2021/03/09 02:02:59;;;;;;;17.03;14.33;;;4.50;84.20;;;;;;5075968;28;20203;-56
2021/03/09 02:05:24;;;;;;;19.07;15.40;;;4.50;84.10;;;;;;5075788;28;20269;-54
2021/03/09 02:07:50;;;;;;;18.70;15.70;;;4.50;84.10;;;;;;5073954;28;20178;-57
2021/03/09 02:10:16;;;;;;;20.33;15.60;;;4.50;84.00;;;;;;5075067;28;20186;-57
2021/03/09 02:12:53;;;;;;;18.80;15.07;;;4.40;84.00;;;;;;5075510;28;20195;-51
2021/03/09 02:15:45;;;;;;;18.73;14.77;;;4.30;84.60;;;;;;5076076;28;20247;-55
2021/03/09 02:18:42;;;;;;;18.67;14.90;;;4.30;85.10;;;;;;5075029;28;20174;-47
2021/03/09 02:21:17;;;;;;;20.40;16.57;;;4.30;85.00;;;;;;5075922;28;20427;-50
2021/03/09 02:23:59;;;;;;;20.77;17.47;;;4.20;85.10;;;;;;5075399;28;20186;-47
2021/03/09 02:26:33;;;;;;;19.00;15.57;;;4.10;85.30;;;;;;5075559;28;20562;-51
2021/03/09 02:29:23;;;;;;;18.07;15.70;;;4.10;85.40;;;;;;5075269;28;20923;-48
2021/03/09 02:31:51;;;;;;;20.00;16.00;;;4.10;85.50;;;;;;5076069;28;20408;-51
2021/03/09 02:34:29;;;;;;;20.00;16.23;;;4.20;85.70;;;;;;5075011;28;20427;-52
2021/03/09 02:36:57;;;;;;;19.20;15.93;;;4.20;85.60;;;;;;5075134;28;20178;-55
2021/03/09 02:39:24;;;;;;;21.23;16.63;;;4.20;85.70;;;;;;5075452;28;20458;-58
2021/03/09 02:41:50;;;;;;;19.37;16.00;;;4.10;86.00;;;;;;5074552;28;20444;-58
2021/03/09 02:44:22;;;;;;;20.37;15.93;;;4.10;86.20;;;;;;5074758;28;20784;-58
2021/03/09 02:46:49;;;;;;;19.07;15.77;;;4.00;86.70;;;;;;5075197;28;20437;-47
2021/03/09 02:49:15;;;;;;;19.77;15.97;;;4.00;86.70;;;;;;5074661;28;20408;-54
2021/03/09 02:51:43;;;;;;;19.93;15.90;;;4.00;86.70;;;;;;5075718;28;20540;-55
2021/03/09 02:54:10;;;;;;;19.33;15.63;;;4.00;86.90;;;;;;5075489;28;20401;-47
2021/03/09 02:56:39;;;;;;;19.53;16.10;;;4.00;86.90;;;;;;5074488;28;20505;-47
2021/03/09 02:59:08;;;;;;;20.83;17.10;;;3.90;87.00;;;;;;5075549;28;20397;-49
2021/03/09 03:01:36;;;;;;;21.63;17.33;;;3.90;87.30;;;;;;5075309;28;20492;-53
2021/03/09 03:04:04;;;;;;;22.93;16.87;;;3.90;87.10;;;;;;5074136;28;20889;-47
2021/03/09 03:06:32;;;;;;;21.27;16.90;;;3.80;87.60;;;;;;5075352;28;20464;-47
2021/03/09 03:09:00;;;;;;;21.90;16.77;;;3.70;87.80;;;;;;5072937;28;20400;-47
2021/03/09 03:11:26;;;;;;;20.47;16.67;;;3.70;88.10;;;;;;5075543;28;20385;-52
2021/03/09 03:13:53;;;;;;;19.87;15.87;;;3.80;88.30;;;;;;5074316;28;20428;-51
2021/03/09 03:16:20;;;;;;;19.97;16.70;;;3.80;88.20;;;;;;5074121;28;20428;-58
2021/03/09 03:18:48;;;;;;;20.43;16.93;;;3.80;88.10;;;;;;5074401;28;20465;-52
2021/03/09 03:21:15;;;;;;;24.00;18.07;;;3.80;88.60;;;;;;5084460;28;20430;-47
2021/03/09 03:23:43;;;;;;;22.10;16.60;;;3.70;88.40;;;;;;5093150;28;20474;-54
2021/03/09 03:26:12;;;;;;;19.77;16.30;;;3.70;88.50;;;;;;5094715;28;20548;-47
2021/03/09 03:28:44;;;;;;;20.33;16.50;;;3.70;88.10;;;;;;5094623;28;20411;-54
2021/03/09 03:31:09;;;;;;;21.20;17.00;;;3.60;88.60;;;;;;5095177;28;20399;-56
2021/03/09 03:33:35;;;;;;;21.80;16.97;;;3.60;88.60;;;;;;5094267;28;20759;-54
2021/03/09 03:36:05;;;;;;;21.27;16.47;;;3.70;88.60;;;;;;5094545;28;20657;-49
2021/03/09 03:38:37;;;;;;;21.40;16.80;;;3.60;89.00;;;;;;5095814;28;20404;-57
2021/03/09 03:41:04;;;;;;;21.03;17.10;;;3.60;89.30;;;;;;5093853;28;20396;-53
2021/03/09 03:43:31;;;;;;;23.77;17.87;;;3.60;89.10;;;;;;5094431;28;20448;-47
2021/03/09 03:45:56;;;;;;;23.67;17.53;;;3.60;89.30;;;;;;5088047;28;20437;-57
2021/03/09 03:48:23;;;;;;;23.03;17.90;;;3.50;89.10;;;;;;5073557;28;20477;-51
2021/03/09 03:50:50;;;;;;;21.73;17.33;;;3.60;89.00;;;;;;5073933;28;20638;-47
2021/03/09 03:53:32;;;;;;;24.37;18.53;;;3.50;89.30;;;;;;5074461;28;20427;-52
2021/03/09 03:56:15;;;;;;;23.47;17.70;;;3.50;89.40;;;;;;5074379;28;20515;-47
2021/03/09 03:59:04;;;;;;;20.93;17.33;;;3.40;90.00;;;;;;5073902;28;20808;-56
2021/03/09 04:01:31;;;;;;;24.10;18.17;;;3.40;90.00;;;;;;5077848;28;20428;-52
2021/03/09 04:03:58;;;;;;;23.90;17.87;;;3.40;90.20;;;;;;5079157;28;20426;-56
2021/03/09 04:06:28;;;;;;;26.10;18.17;;;3.30;90.20;;;;;;5094133;28;20462;-55
2021/03/09 04:09:00;;;;;;;25.63;19.53;;;3.40;90.20;;;;;;5094252;28;20403;-55
2021/03/09 04:11:26;;;;;;;24.57;18.70;;;3.40;90.20;;;;;;5094394;28;20532;-47
2021/03/09 04:13:52;;;;;;;25.23;18.50;;;3.40;90.00;;;;;;5094054;28;20498;-49
2021/03/09 04:16:19;;;;;;;21.10;16.67;;;3.40;90.00;;;;;;5094154;28;20495;-58
2021/03/09 04:18:46;;;;;;;23.37;17.73;;;3.40;90.10;;;;;;5094052;28;20403;-47
2021/03/09 04:21:12;;;;;;;23.07;17.77;;;3.40;90.10;;;;;;5099060;28;20411;-47
2021/03/09 04:23:38;;;;;;;21.73;17.20;;;3.30;90.00;;;;;;5099254;28;20550;-52
2021/03/09 04:26:05;;;;;;;22.77;18.33;;;3.30;90.00;;;;;;5098276;28;20419;-49
2021/03/09 04:28:32;;;;;;;24.60;18.47;;;3.20;90.10;;;;;;5098048;28;20507;-47
2021/03/09 04:30:58;;;;;;;23.57;18.93;;;3.20;90.20;;;;;;5097141;28;20960;-49
2021/03/09 04:33:26;;;;;;;25.73;18.70;;;3.20;90.20;;;;;;5097847;28;20921;-51
2021/03/09 04:35:56;;;;;;;23.83;19.23;;;3.20;90.20;;;;;;5097117;28;20428;-46
2021/03/09 04:38:22;;;;;;;23.50;17.93;;;3.20;90.20;;;;;;5097682;28;20412;-54
2021/03/09 04:40:49;;;;;;;23.97;17.97;;;3.20;90.20;;;;;;5097807;28;20460;-56
2021/03/09 04:43:15;;;;;;;24.80;18.23;;;3.10;90.10;;;;;;5097669;28;20538;-57
2021/03/09 04:45:41;;;;;;;24.23;17.07;;;3.10;90.10;;;;;;5095736;28;20471;-47
2021/03/09 04:48:07;;;;;;;21.80;16.70;;;3.10;90.10;;;;;;5097775;28;20177;-53
2021/03/09 04:50:35;;;;;;;24.07;15.77;;;3.00;90.40;;;;;;5097593;28;20174;-58
2021/03/09 04:53:00;;;;;;;20.47;15.33;;;3.00;90.70;;;;;;5097457;28;20404;-48
2021/03/09 04:55:27;;;;;;;21.13;15.77;;;3.00;90.90;;;;;;5097420;28;20481;-47
2021/03/09 04:57:53;;;;;;;18.17;14.63;;;2.90;91.00;;;;;;5097091;28;20219;-54
2021/03/09 05:00:24;;;;;;;19.17;15.27;;;2.90;91.00;;;;;;5096673;28;20426;-51
2021/03/09 05:02:51;;;;;;;21.17;16.27;;;2.80;91.10;;;;;;5076943;28;20527;-47
2021/03/09 05:05:19;;;;;;;19.17;15.13;;;2.80;90.80;;;;;;5076915;28;20417;-51
2021/03/09 05:07:45;;;;;;;24.37;15.77;;;2.80;90.90;;;;;;5076367;28;20412;-58
2021/03/09 05:10:12;;;;;;;20.27;15.67;;;2.80;90.90;;;;;;5076194;28;20428;-54
2021/03/09 05:12:42;;;;;;;18.93;15.30;;;2.80;90.80;;;;;;5076749;28;20745;-47
2021/03/09 05:15:09;;;;;;;22.60;16.10;;;2.80;90.70;;;;;;5077334;28;20448;-52
2021/03/09 05:17:35;;;;;;;20.03;14.97;;;2.80;90.80;;;;;;5076363;28;20428;-58
2021/03/09 05:20:00;;;;;;;21.53;16.20;;;2.80;91.00;;;;;;5076523;28;20425;-58
2021/03/09 05:22:26;;;;;;;21.77;16.23;;;2.80;91.10;;;;;;5076491;28;20209;-58
2021/03/09 05:24:52;;;;;;;18.93;14.63;;;2.70;91.00;;;;;;5076092;28;20201;-58
2021/03/09 05:27:17;;;;;;;21.10;15.47;;;2.60;91.50;;;;;;5076285;28;20648;-46
2021/03/09 05:29:43;;;;;;;21.83;15.03;;;2.60;91.80;;;;;;5076632;28;20594;-47
2021/03/09 05:32:08;;;;;;;21.20;14.90;;;2.60;91.60;;;;;;5074771;28;20185;-47
2021/03/09 05:34:34;;;;;;;19.73;15.27;;;2.50;91.90;;;;;;5075784;28;20177;-48
2021/03/09 05:37:00;;;;;;;21.43;15.67;;;2.50;91.70;;;;;;5076275;28;20170;-58
2021/03/09 05:39:25;;;;;;;20.77;15.80;;;2.60;91.70;;;;;;5076083;28;20270;-47
2021/03/09 05:41:51;;;;;;;19.70;15.50;;;2.50;91.70;;;;;;5076122;28;20233;-53
2021/03/09 05:44:16;;;;;;;23.00;16.07;;;2.60;92.10;;;;;;5076601;28;20178;-53
2021/03/09 05:46:42;;;;;;;18.67;15.13;;;2.60;92.00;;;;;;5076242;28;20926;-46
2021/03/09 05:49:09;;;;;;;20.23;15.90;;;2.60;92.10;;;;;;5076242;28;20166;-46
2021/03/09 05:51:35;;;;;;;20.67;15.73;;;2.60;92.10;;;;;;5075848;28;20446;-47
2021/03/09 05:54:00;;;;;;;19.13;14.70;;;2.60;92.00;;;;;;5075854;28;20494;-55
2021/03/09 05:56:27;;;;;;;22.67;15.23;;;2.60;92.20;;;;;;5081791;28;20205;-55
2021/03/09 05:58:53;;;;;;;21.53;14.33;;;2.70;92.20;;;;;;5094379;28;20170;-47
2021/03/09 06:01:19;;;;;;;22.57;15.43;;;2.70;92.30;;;;;;5083788;28;20451;-47
2021/03/09 06:03:44;;;;;;;20.00;15.13;;;2.70;92.60;;;;;;5095766;28;20654;-47
2021/03/09 06:06:12;;;;;;;17.90;14.20;;;2.70;92.70;;;;;;5081104;28;20443;-53
2021/03/09 06:08:38;;;;;;;22.27;14.90;;;2.70;92.90;;;;;;5075557;28;20163;-55
2021/03/09 06:11:17;;;;;;;24.30;15.70;;;2.70;93.00;;;;;;5076029;28;20431;-49
2021/03/09 06:13:44;;;;;;;20.63;14.63;;;2.90;93.30;;;;;;5081149;28;20182;-56
2021/03/09 06:16:10;;;;;;;20.47;15.07;;;2.90;93.20;;;;;;5080394;28;20446;-48
2021/03/09 06:18:36;;;;;;;21.93;15.97;;;3.00;93.30;;;;;;5083795;28;20443;-58
2021/03/09 06:21:22;;;;;;;22.53;15.27;;;3.10;93.30;;;;;;5080847;28;20429;-55
2021/03/09 06:23:48;;;;;;;22.20;17.53;;;3.20;93.40;;;;;;5081279;28;20204;-52
2021/03/09 06:26:32;;;;;;;23.73;18.33;;;3.20;93.30;;;;;;5085009;28;20460;-55
2021/03/09 06:29:10;;;;;;;23.83;17.37;;;3.30;93.40;;;;;;5084808;28;20185;-53
2021/03/09 06:31:37;;;;;;;26.30;18.43;;;3.30;93.50;;;;;;5077324;28;20847;-56
2021/03/09 06:34:22;;;;;;;25.20;19.50;;;3.40;93.40;;;;;;5092261;28;20494;-58
2021/03/09 06:37:16;;;;;;;24.13;17.93;;;3.50;93.10;;;;;;5089977;28;20424;-47
2021/03/09 06:40:05;;;;;;;23.70;18.20;;;3.60;93.10;;;;;;5057401;28;20413;-51
2021/03/09 06:42:31;;;;;;;22.90;18.00;;;3.70;92.80;;;;;;5073984;28;20490;-51
2021/03/09 06:45:02;;;;;;;23.00;17.43;;;3.80;92.70;;;;;;5077970;28;20464;-51
2021/03/09 06:47:36;;;;;;;24.23;18.67;;;3.90;92.60;;;;;;5092872;28;20265;-46
2021/03/09 06:50:05;;;;;;;21.43;17.33;;;4.00;92.50;;;;;;5094716;28;20435;-50
2021/03/09 06:52:31;;;;;;;20.70;16.77;;;4.10;92.50;;;;;;5091201;28;20829;-49
2021/03/09 06:54:56;;;;;;;22.97;18.10;;;4.20;92.30;;;;;;5094532;28;20988;-50
2021/03/09 06:57:23;;;;;;;22.23;17.83;;;4.30;92.10;;;;;;5083025;28;20182;-52
2021/03/09 06:59:52;;;;;;;21.83;17.70;;;4.40;92.00;;;;;;5090837;28;20200;-53
2021/03/09 07:02:23;;;;;;;24.33;18.70;;;4.50;91.90;;;;;;5085278;28;20687;-50
2021/03/09 07:04:53;;;;;;;22.97;18.50;;;4.50;91.70;;;;;;5093630;28;20206;-47
2021/03/09 07:07:29;;;;;;;22.37;17.80;;;4.70;91.60;;;;;;5094060;28;20166;-56
2021/03/09 07:10:03;;;;;;;21.13;16.63;;;4.80;91.50;;;;;;5089968;28;20196;-57
2021/03/09 07:12:29;;;;;;;20.87;16.20;;;4.80;91.40;;;;;;5079493;28;20584;-45
2021/03/09 07:14:56;;;;;;;21.00;16.13;;;4.80;90.90;;;;;;5074025;28;20586;-51
2021/03/09 07:17:24;;;;;;;19.13;15.80;;;4.90;90.80;;;;;;5073694;28;20526;-51
2021/03/09 07:19:51;;;;;;;19.87;16.27;;;5.00;90.60;;;;;;5073720;28;20197;-45
2021/03/09 07:22:18;;;;;;;20.73;16.33;;;5.10;90.40;;;;;;5073211;28;20198;-53
2021/03/09 07:25:04;;;;;;;19.27;15.10;;;5.20;90.40;;;;;;5073921;28;20642;-53
2021/03/09 07:27:52;;;;;;;17.30;15.00;;;5.40;90.10;;;;;;5074407;28;20174;-47
2021/03/09 07:30:20;;;;;;;19.60;15.47;;;5.60;89.10;;;;;;5073730;28;20177;-46
2021/03/09 07:33:04;;;;;;;20.07;15.83;;;5.80;88.90;;;;;;5073575;28;20638;-55
2021/03/09 07:35:30;;;;;;;21.17;16.27;;;6.10;87.60;;;;;;5073705;28;20194;-46
2021/03/09 07:37:57;;;;;;;19.37;15.77;;;6.00;85.60;;;;;;5073657;28;20170;-48
2021/03/09 07:40:25;;;;;;;17.50;14.27;;;6.00;85.90;;;;;;5076053;28;20177;-52
2021/03/09 07:42:51;;;;;;;19.90;15.47;;;5.90;85.50;;;;;;5093432;28;20201;-57
2021/03/09 07:45:24;;;;;;;20.77;15.97;;;5.90;86.20;;;;;;5094033;28;20189;-51
2021/03/09 07:47:52;;;;;;;19.80;15.53;;;6.00;85.90;;;;;;5092514;28;20177;-50
2021/03/09 07:50:19;;;;;;;19.33;16.33;;;5.80;85.40;;;;;;5093839;28;20166;-46
2021/03/09 07:53:05;;;;;;;20.03;15.83;;;5.70;85.40;;;;;;5091685;28;20314;-52
2021/03/09 07:55:31;;;;;;;19.50;15.97;;;5.50;86.20;;;;;;5096128;28;20200;-55
2021/03/09 07:58:15;;;;;;;20.37;16.40;;;5.30;85.70;;;;;;5097918;28;20193;-45
2021/03/09 08:01:00;;;;;;;18.83;15.40;;;5.00;86.90;;;;;;5098007;28;20260;-48
2021/03/09 08:03:37;;;;;;;19.80;15.87;;;5.00;88.10;;;;;;5097714;28;20198;-52
2021/03/09 08:06:08;;;;;;;19.17;16.03;;;4.90;88.60;;;;;;5097788;28;20216;-53
2021/03/09 08:08:37;;;;;;;19.20;16.43;;;5.00;88.90;;;;;;5097589;28;20194;-46
2021/03/09 08:11:05;;;;;;;19.80;16.10;;;5.00;88.40;;;;;;5097172;28;20190;-46
2021/03/09 08:13:31;;;;;;;21.03;16.63;;;5.20;88.90;;;;;;5097835;28;20180;-46
2021/03/09 08:16:21;;;;;;;17.13;14.97;;;5.50;88.10;;;;;;5097712;28;20280;-52
2021/03/09 08:18:54;;;;;;;19.63;16.23;;;6.00;86.80;;;;;;5097547;28;20170;-47
2021/03/09 08:21:40;;;;;;;18.40;15.47;;;6.40;85.70;;;;;;5097293;28;20169;-48
2021/03/09 08:24:06;;;;;;;19.17;15.80;;;6.50;84.40;;;;;;5097641;28;20190;-46
2021/03/09 08:26:32;;;;;;;18.37;15.30;;;6.50;82.30;;;;;;5097587;28;20193;-51
2021/03/09 08:28:58;;;;;;;16.90;14.13;;;6.40;82.00;;;;;;5096976;28;20166;-52
2021/03/09 08:31:26;;;;;;;18.27;15.60;;;6.20;82.10;;;;;;5097038;28;20174;-46
2021/03/09 08:34:00;;;;;;;17.60;15.60;;;6.20;84.10;;;;;;5097285;28;20513;-46
2021/03/09 08:36:32;;;;;;;17.90;14.83;;;6.50;84.50;;;;;;5097393;28;20326;-51
2021/03/09 08:39:00;;;;;;;17.00;15.07;;;6.80;82.00;;;;;;5097197;28;20170;-53
2021/03/09 08:41:35;;;;;;;18.70;15.50;;;7.00;81.00;;;;;;5096647;28;20653;-47
2021/03/09 08:44:23;;;;;;;16.97;14.53;;;7.30;80.80;;;;;;5097081;28;20575;-47
2021/03/09 08:47:00;;;;;;;16.70;14.23;;;7.50;79.50;;;;;;5096805;28;20185;-50
2021/03/09 08:49:34;;;;;;;15.53;13.93;;;7.70;78.60;;;;;;5096985;28;20215;-55
2021/03/09 08:52:04;;;;;;;16.90;13.87;;;8.20;80.10;;;;;;5096715;28;20223;-52
2021/03/09 08:54:31;;;;;;;16.33;14.60;;;8.50;76.30;;;;;;5096657;28;20517;-52
2021/03/09 08:56:59;;;;;;;19.53;14.80;;;8.80;76.00;;;;;;5097043;28;20196;-46
2021/03/09 08:59:27;;;;;;;16.73;14.07;;;9.00;73.50;;;;;;5097075;28;20177;-46
2021/03/09 09:01:53;;;;;;;17.20;15.20;;;9.10;74.30;;;;;;5095828;28;20189;-50
2021/03/09 09:04:19;;;;;;;15.67;13.97;;;9.40;73.70;;;;;;5096568;28;20170;-52
2021/03/09 09:06:46;;;;;;;15.93;14.23;;;9.80;74.20;;;;;;5083404;28;20558;-57
2021/03/09 09:09:27;;;;;;;14.50;13.00;;;10.30;71.30;;;;;;5076191;28;20182;-52
2021/03/09 09:11:53;;;;;;;15.33;13.23;;;10.80;70.60;;;;;;5076208;28;20234;-53
2021/03/09 09:14:18;;;;;;;14.43;12.93;;;11.40;66.80;;;;;;5076104;28;20193;-51
2021/03/09 09:16:46;;;;;;;15.43;13.83;;;11.90;66.40;;;;;;5088493;28;20768;-51
2021/03/09 09:19:12;;;;;;;14.67;12.53;;;12.40;63.30;;;;;;5096311;28;20522;-54
2021/03/09 09:21:49;;;;;;;14.37;12.77;;;12.90;62.90;;;;;;5096149;28;20607;-51
2021/03/09 09:24:19;;;;;;;14.37;12.87;;;13.40;60.20;;;;;;5096643;28;20205;-50
2021/03/09 09:26:45;;;;;;;13.47;12.07;;;13.80;58.70;;;;;;5095373;28;20216;-48
2021/03/09 09:29:11;;;;;;;13.83;12.33;;;14.30;56.50;;;;;;5092674;28;20195;-51
2021/03/09 09:31:37;;;;;;;13.83;12.40;;;14.50;54.30;;;;;;5075432;28;20173;-47
2021/03/09 09:34:05;;;;;;;13.17;11.87;;;15.00;52.30;;;;;;5075463;28;20175;-53
2021/03/09 09:36:31;;;;;;;12.87;11.57;;;15.40;51.80;;;;;;5080760;28;20278;-56
2021/03/09 09:38:56;;;;;;;14.80;13.20;;;16.10;51.10;;;;;;5067003;28;20183;-48
2021/03/09 09:41:23;;;;;;;15.27;13.70;;;16.50;50.10;;;;;;5084014;28;20232;-51
2021/03/09 09:43:49;;;;;;;12.80;11.57;;;17.40;48.20;;;;;;5085985;28;20204;-47
2021/03/09 09:46:24;;;;;;;17.47;12.07;;;18.50;48.40;;;;;;5084342;28;20210;-47
2021/03/09 09:48:51;;;;;;;12.17;10.97;;;20.00;46.50;;;;;;5081024;28;20261;-54
2021/03/09 09:51:22;;;;;;;11.88;10.77;;;21.40;44.10;;;;;;5084621;28;20210;-54
2021/03/09 09:53:50;;;;;;;12.07;10.98;;;23.30;40.20;;;;;;5075310;28;20249;-47
2021/03/09 09:56:19;;;;;;;7.68;6.97;;;23.80;37.10;;;;;;5075181;28;20286;-57
2021/03/09 09:58:51;;;;;;;7.22;6.63;;;24.30;34.10;;;;;;5079193;28;20542;-58
2021/03/09 10:01:40;;;;;;;7.53;6.82;;;25.50;33.20;;;;;;5090435;28;20174;-54
2021/03/09 10:04:11;;;;;;;7.32;6.63;;;26.60;32.20;;;;;;5074365;28;20170;-47
2021/03/09 10:06:47;;;;;;;7.30;6.70;;;27.90;30.10;;;;;;5088051;28;20221;-49
2021/03/09 10:09:23;;;;;;;7.95;7.25;;;29.20;29.50;;;;;;5100248;28;20562;-47
2021/03/09 10:11:49;;;;;;;6.75;6.22;;;30.20;29.20;;;;;;5104895;28;20184;-49
2021/03/09 10:14:16;;;;;;;7.90;7.20;;;31.30;27.90;;;;;;5109212;28;20233;-50
2021/03/09 10:16:43;;;;;;;8.70;7.90;;;31.30;26.70;;;;;;5103144;28;20660;-52
2021/03/09 10:19:17;;;;;;;7.38;6.78;;;31.00;26.60;;;;;;5074407;28;20171;-47
2021/03/09 10:21:43;;;;;;;7.30;6.70;;;29.90;26.80;;;;;;5074773;28;20630;-51
2021/03/09 10:24:18;;;;;;;6.25;5.75;;;29.00;26.90;;;;;;5075160;28;20175;-48
2021/03/09 10:26:48;;;;;;;6.57;5.97;;;29.20;27.30;;;;;;5091553;28;20221;-56
2021/03/09 10:29:16;;;;;;;6.70;6.10;;;28.50;26.50;;;;;;5095381;28;20204;-47
2021/03/09 10:31:47;;;;;;;6.97;6.32;;;27.50;27.00;;;;;;5095222;28;20193;-53
2021/03/09 10:34:14;;;;;;;7.30;6.60;;;26.00;26.30;;;;;;5095557;28;20208;-54
2021/03/09 10:36:59;;;;;;;7.78;7.00;;;22.60;28.20;;;;;;5094820;28;20670;-47
2021/03/09 10:39:26;;;;;;;7.35;6.55;;;22.20;30.60;;;;;;5095175;28;20224;-54
2021/03/09 10:41:52;;;;;;;6.93;6.32;;;24.40;31.00;;;;;;5094374;28;20170;-48
2021/03/09 10:44:29;;;;;;;6.05;5.45;;;27.10;30.20;;;;;;5082395;28;20589;-57
2021/03/09 10:46:55;;;;;;;5.80;5.30;;;30.20;28.00;;;;;;5074775;28;20171;-49
2021/03/09 10:49:22;;;;;;;4.55;4.18;;;32.20;26.80;;;;;;5074181;28;20576;-53
2021/03/09 10:51:53;;;;;;;7.03;6.43;;;33.80;24.40;;;;;;5074076;28;20223;-48
2021/03/09 10:54:19;;;;;;;7.50;6.90;;;33.30;23.80;;;;;;5076666;28;20504;-48
2021/03/09 10:56:44;;;;;;;6.90;6.30;;;30.80;25.30;;;;;;5093406;28;20680;-53
2021/03/09 10:59:10;;;;;;;8.40;7.60;;;29.60;26.20;;;;;;5092756;28;20634;-48
2021/03/09 11:01:36;;;;;;;6.70;6.10;;;30.00;26.70;;;;;;5092576;28;20178;-48
2021/03/09 11:04:02;;;;;;;7.97;7.28;;;31.20;26.60;;;;;;5092449;28;20201;-56
2021/03/09 11:06:27;;;;;;;8.82;8.13;;;32.10;25.00;;;;;;5082876;28;20625;-58
2021/03/09 11:08:53;;;;;;;8.82;8.02;;;31.00;25.00;;;;;;5074049;28;20626;-48
2021/03/09 11:11:19;;;;;;;9.18;8.38;;;29.50;25.60;;;;;;5073546;28;20177;-50
2021/03/09 11:13:44;;;;;;;9.50;8.70;;;28.90;26.40;;;;;;5073855;28;20213;-53
2021/03/09 11:16:10;;;;;;;8.60;7.80;;;28.10;26.70;;;;;;5073872;28;20194;-53
2021/03/09 11:18:35;;;;;;;9.77;8.60;;;26.80;27.80;;;;;;5074080;28;20171;-47
2021/03/09 11:21:01;;;;;;;10.90;8.95;;;26.00;28.30;;;;;;5073711;28;20171;-58
2021/03/09 11:23:26;;;;;;;9.25;8.38;;;26.10;28.50;;;;;;5073472;28;20198;-48
2021/03/09 11:25:52;;;;;;;9.02;8.23;;;25.40;28.70;;;;;;5079472;28;20222;-47
2021/03/09 11:28:17;;;;;;;9.07;8.27;;;24.10;28.50;;;;;;5093705;28;20211;-47
2021/03/09 11:30:43;;;;;;;9.05;8.15;;;23.90;28.90;;;;;;5093404;28;20498;-50
2021/03/09 11:33:08;;;;;;;8.98;8.18;;;22.90;30.20;;;;;;5093800;28;20170;-50
2021/03/09 11:35:34;;;;;;;9.35;8.50;;;22.60;30.10;;;;;;5092951;28;20289;-58
2021/03/09 11:38:00;;;;;;;8.77;7.97;;;23.10;29.60;;;;;;5094212;28;20178;-58
2021/03/09 11:40:25;;;;;;;8.77;7.97;;;23.40;29.00;;;;;;5093685;28;20189;-52
2021/03/09 11:42:51;;;;;;;8.55;7.75;;;24.40;29.50;;;;;;5091804;28;20229;-54
2021/03/09 11:45:16;;;;;;;8.45;7.65;;;25.60;28.90;;;;;;5091368;28;20246;-48
2021/03/09 11:47:42;;;;;;;7.75;7.05;;;26.20;28.00;;;;;;5091744;28;20521;-57
2021/03/09 11:50:08;;;;;;;7.88;7.18;;;27.50;26.90;;;;;;5091594;28;20166;-47
2021/03/09 11:52:34;;;;;;;7.55;6.90;;;27.90;27.60;;;;;;5087219;28;20658;-55
2021/03/09 11:55:00;;;;;;;6.82;6.22;;;28.80;27.60;;;;;;5070365;28;20233;-58
2021/03/09 11:57:25;;;;;;;7.47;6.78;;;29.20;25.90;;;;;;5071201;28;20265;-54
2021/03/09 11:59:51;;;;;;;6.60;6.00;;;29.80;26.50;;;;;;5072851;28;20211;-51
2021/03/09 12:02:16;;;;;;;7.80;7.10;;;29.40;26.20;;;;;;5072440;28;20281;-47
2021/03/09 12:04:42;;;;;;;7.10;6.50;;;28.60;25.90;;;;;;5072640;28;20167;-56
2021/03/09 12:07:07;;;;;;;7.15;6.55;;;28.50;25.80;;;;;;5072896;28;20202;-49
2021/03/09 12:09:33;;;;;;;7.47;6.78;;;29.20;25.80;;;;;;5073249;28;20190;-55
2021/03/09 12:11:59;;;;;;;6.65;6.05;;;29.90;25.20;;;;;;5073496;28;20190;-48
2021/03/09 12:14:24;;;;;;;6.90;6.30;;;29.00;25.70;;;;;;5073365;28;20228;-48
2021/03/09 12:16:50;;;;;;;8.63;6.47;;;28.70;25.60;;;;;;5073156;28;20171;-48
2021/03/09 12:19:15;;;;;;;6.85;6.25;;;28.50;27.40;;;;;;5073544;28;20190;-51
2021/03/09 12:21:41;;;;;;;7.68;6.97;;;29.10;27.00;;;;;;5073135;28;20178;-48
2021/03/09 12:24:07;;;;;;;6.85;6.25;;;28.80;25.80;;;;;;5073010;28;20209;-54
2021/03/09 12:26:33;;;;;;;8.60;6.68;;;27.30;26.40;;;;;;5071924;28;20566;-57
2021/03/09 12:28:59;;;;;;;7.22;6.53;;;27.40;25.50;;;;;;5073698;28;20186;-50
2021/03/09 12:31:25;;;;;;;6.82;6.22;;;26.80;27.60;;;;;;5072989;28;20526;-48
2021/03/09 12:33:51;;;;;;;7.90;7.13;;;25.00;28.80;;;;;;5073688;28;20694;-48
2021/03/09 12:36:16;;;;;;;7.30;6.70;;;23.80;28.00;;;;;;5073637;28;20635;-53
2021/03/09 12:38:42;;;;;;;8.52;7.80;;;23.40;29.50;;;;;;5073067;28;20206;-54
2021/03/09 12:41:07;;;;;;;9.50;8.70;;;23.40;28.00;;;;;;5074786;28;20179;-53
2021/03/09 12:43:33;;;;;;;8.38;7.57;;;23.30;27.90;;;;;;5076809;28;20213;-48
2021/03/09 12:45:58;;;;;;;8.05;7.35;;;23.30;28.20;;;;;;5077005;28;20225;-49